sensor_id;sensor_type;location;lat;lon;timestamp;temperature;humidity
5196;DHT22;2617;51.006;12.436;2024-02-21T00:02:10;6.70;99.90
5196;DHT22;2617;51.006;12.436;2024-02-21T00:07:14;6.70;99.90
5196;DHT22;2617;51.006;12.436;2024-02-21T00:12:16;6.70;99.90
5196;DHT22;2617;51.006;12.436;2024-02-21T00:17:19;6.70;99.90
5196;DHT22;2617;51.006;12.436;2024-02-21T00:22:22;6.70;99.90
5196;DHT22;2617;51.006;12.436;2024-02-21T00:27:25;6.70;99.90
5196;DHT22;2617;51.006;12.436;2024-02-21T00:32:27;6.70;99.90
5196;DHT22;2617;51.006;12.436;2024-02-21T00:37:30;6.70;99.90
5196;DHT22;2617;51.006;12.436;2024-02-21T00:42:32;6.70;99.90
5196;DHT22;2617;51.006;12.436;2024-02-21T00:47:35;6.70;99.90
5196;DHT22;2617;51.006;12.436;2024-02-21T00:52:37;6.70;99.90
5196;DHT22;2617;51.006;12.436;2024-02-21T00:57:40;6.70;99.90
5196;DHT22;2617;51.006;12.436;2024-02-21T01:02:42;6.60;99.90
5196;DHT22;2617;51.006;12.436;2024-02-21T01:07:45;6.60;99.90
5196;DHT22;2617;51.006;12.436;2024-02-21T01:12:48;6.60;99.90
5196;DHT22;2617;51.006;12.436;2024-02-21T01:17:50;6.50;99.90
5196;DHT22;2617;51.006;12.436;2024-02-21T01:22:53;6.50;99.90
5196;DHT22;2617;51.006;12.436;2024-02-21T01:27:55;6.50;99.90
5196;DHT22;2617;51.006;12.436;2024-02-21T01:32:58;6.40;99.90
5196;DHT22;2617;51.006;12.436;2024-02-21T01:38:01;6.40;99.90
5196;DHT22;2617;51.006;12.436;2024-02-21T01:43:03;6.40;99.90
5196;DHT22;2617;51.006;12.436;2024-02-21T01:48:06;6.40;99.90
5196;DHT22;2617;51.006;12.436;2024-02-21T01:53:09;6.50;99.90
5196;DHT22;2617;51.006;12.436;2024-02-21T01:58:13;6.50;99.90
5196;DHT22;2617;51.006;12.436;2024-02-21T02:03:15;6.50;99.90
5196;DHT22;2617;51.006;12.436;2024-02-21T02:08:19;6.50;99.90
5196;DHT22;2617;51.006;12.436;2024-02-21T02:13:22;6.50;99.90
5196;DHT22;2617;51.006;12.436;2024-02-21T02:18:25;6.50;99.90
5196;DHT22;2617;51.006;12.436;2024-02-21T02:23:29;6.50;99.90
5196;DHT22;2617;51.006;12.436;2024-02-21T02:28:31;6.50;99.90
5196;DHT22;2617;51.006;12.436;2024-02-21T02:33:34;6.50;99.90
5196;DHT22;2617;51.006;12.436;2024-02-21T02:38:36;6.50;99.90
5196;DHT22;2617;51.006;12.436;2024-02-21T02:43:39;6.50;99.90
5196;DHT22;2617;51.006;12.436;2024-02-21T02:48:41;6.50;99.90
5196;DHT22;2617;51.006;12.436;2024-02-21T02:53:44;6.50;99.90
5196;DHT22;2617;51.006;12.436;2024-02-21T02:58:47;6.50;99.90
5196;DHT22;2617;51.006;12.436;2024-02-21T03:03:49;6.50;99.90
5196;DHT22;2617;51.006;12.436;2024-02-21T03:08:53;6.60;99.90
5196;DHT22;2617;51.006;12.436;2024-02-21T03:13:56;6.70;99.90
5196;DHT22;2617;51.006;12.436;2024-02-21T03:18:58;6.60;99.90
5196;DHT22;2617;51.006;12.436;2024-02-21T03:24:01;6.70;99.90
5196;DHT22;2617;51.006;12.436;2024-02-21T03:29:04;6.60;99.90
5196;DHT22;2617;51.006;12.436;2024-02-21T03:34:07;6.60;99.90
5196;DHT22;2617;51.006;12.436;2024-02-21T03:39:10;6.50;99.90
5196;DHT22;2617;51.006;12.436;2024-02-21T03:44:12;6.50;99.90
5196;DHT22;2617;51.006;12.436;2024-02-21T03:49:15;6.50;99.90
5196;DHT22;2617;51.006;12.436;2024-02-21T03:54:17;6.40;99.90
5196;DHT22;2617;51.006;12.436;2024-02-21T03:59:20;6.40;99.90
5196;DHT22;2617;51.006;12.436;2024-02-21T04:04:23;6.30;99.90
5196;DHT22;2617;51.006;12.436;2024-02-21T04:09:26;6.30;99.90
5196;DHT22;2617;51.006;12.436;2024-02-21T04:14:29;6.30;99.90
5196;DHT22;2617;51.006;12.436;2024-02-21T04:19:31;6.30;99.90
5196;DHT22;2617;51.006;12.436;2024-02-21T04:24:34;6.40;99.90
5196;DHT22;2617;51.006;12.436;2024-02-21T04:29:36;6.40;99.90
5196;DHT22;2617;51.006;12.436;2024-02-21T04:34:40;6.30;99.90
5196;DHT22;2617;51.006;12.436;2024-02-21T04:39:42;6.30;99.90
5196;DHT22;2617;51.006;12.436;2024-02-21T04:44:44;6.30;99.90
5196;DHT22;2617;51.006;12.436;2024-02-21T04:49:47;6.30;99.90
5196;DHT22;2617;51.006;12.436;2024-02-21T04:54:50;6.30;99.90
5196;DHT22;2617;51.006;12.436;2024-02-21T04:59:52;6.20;99.90
5196;DHT22;2617;51.006;12.436;2024-02-21T05:04:55;6.20;99.90
5196;DHT22;2617;51.006;12.436;2024-02-21T05:09:58;6.20;99.90
5196;DHT22;2617;51.006;12.436;2024-02-21T05:15:01;6.20;99.90
5196;DHT22;2617;51.006;12.436;2024-02-21T05:20:04;6.20;99.90
5196;DHT22;2617;51.006;12.436;2024-02-21T05:25:09;6.20;99.90
5196;DHT22;2617;51.006;12.436;2024-02-21T05:30:11;6.20;99.90
5196;DHT22;2617;51.006;12.436;2024-02-21T05:35:14;6.20;99.90
5196;DHT22;2617;51.006;12.436;2024-02-21T05:40:16;6.20;99.90
5196;DHT22;2617;51.006;12.436;2024-02-21T05:45:19;6.20;99.90
5196;DHT22;2617;51.006;12.436;2024-02-21T05:50:22;6.20;99.90
5196;DHT22;2617;51.006;12.436;2024-02-21T05:55:26;6.20;99.90
5196;DHT22;2617;51.006;12.436;2024-02-21T06:00:28;6.10;99.90
5196;DHT22;2617;51.006;12.436;2024-02-21T06:05:35;6.10;99.90
5196;DHT22;2617;51.006;12.436;2024-02-21T06:10:34;6.00;99.90
5196;DHT22;2617;51.006;12.436;2024-02-21T06:15:36;6.10;99.90
5196;DHT22;2617;51.006;12.436;2024-02-21T06:20:39;6.10;99.90
5196;DHT22;2617;51.006;12.436;2024-02-21T06:25:41;6.00;99.90
5196;DHT22;2617;51.006;12.436;2024-02-21T06:30:44;6.00;99.90
5196;DHT22;2617;51.006;12.436;2024-02-21T06:35:46;6.00;99.90
5196;DHT22;2617;51.006;12.436;2024-02-21T06:40:49;6.10;99.90
5196;DHT22;2617;51.006;12.436;2024-02-21T06:45:52;6.10;99.90
5196;DHT22;2617;51.006;12.436;2024-02-21T06:50:55;6.10;99.90
5196;DHT22;2617;51.006;12.436;2024-02-21T06:55:57;6.10;99.90
5196;DHT22;2617;51.006;12.436;2024-02-21T07:01:00;6.20;99.90
5196;DHT22;2617;51.006;12.436;2024-02-21T07:06:03;6.40;99.90
5196;DHT22;2617;51.006;12.436;2024-02-21T07:11:07;6.60;99.90
5196;DHT22;2617;51.006;12.436;2024-02-21T07:16:09;6.60;99.90
5196;DHT22;2617;51.006;12.436;2024-02-21T07:21:12;6.70;99.90
5196;DHT22;2617;51.006;12.436;2024-02-21T07:26:15;6.90;99.90
5196;DHT22;2617;51.006;12.436;2024-02-21T07:31:17;7.00;99.90
5196;DHT22;2617;51.006;12.436;2024-02-21T07:36:29;7.10;99.90
5196;DHT22;2617;51.006;12.436;2024-02-21T07:41:31;7.20;99.90
5196;DHT22;2617;51.006;12.436;2024-02-21T07:46:34;7.10;99.90
5196;DHT22;2617;51.006;12.436;2024-02-21T07:51:36;7.20;99.90
5196;DHT22;2617;51.006;12.436;2024-02-21T07:56:39;7.30;99.90
5196;DHT22;2617;51.006;12.436;2024-02-21T08:01:41;7.30;99.90
5196;DHT22;2617;51.006;12.436;2024-02-21T08:06:44;7.30;99.90
5196;DHT22;2617;51.006;12.436;2024-02-21T08:11:46;7.30;99.90
5196;DHT22;2617;51.006;12.436;2024-02-21T08:16:49;7.50;99.90
5196;DHT22;2617;51.006;12.436;2024-02-21T08:21:51;7.60;99.90
5196;DHT22;2617;51.006;12.436;2024-02-21T08:26:54;7.70;99.90
5196;DHT22;2617;51.006;12.436;2024-02-21T08:31:56;7.80;99.90
5196;DHT22;2617;51.006;12.436;2024-02-21T08:36:59;7.80;99.90
5196;DHT22;2617;51.006;12.436;2024-02-21T08:42:01;7.80;99.90
5196;DHT22;2617;51.006;12.436;2024-02-21T08:47:05;7.90;99.90
5196;DHT22;2617;51.006;12.436;2024-02-21T08:52:07;7.80;99.90
5196;DHT22;2617;51.006;12.436;2024-02-21T08:57:10;7.90;99.90
5196;DHT22;2617;51.006;12.436;2024-02-21T09:02:13;8.10;99.90
5196;DHT22;2617;51.006;12.436;2024-02-21T09:07:18;8.10;99.90
5196;DHT22;2617;51.006;12.436;2024-02-21T09:12:20;8.20;99.90
5196;DHT22;2617;51.006;12.436;2024-02-21T09:17:23;8.30;99.90
5196;DHT22;2617;51.006;12.436;2024-02-21T09:22:26;8.40;99.90
5196;DHT22;2617;51.006;12.436;2024-02-21T09:27:29;8.40;99.90
5196;DHT22;2617;51.006;12.436;2024-02-21T09:32:32;8.40;99.90
5196;DHT22;2617;51.006;12.436;2024-02-21T09:37:34;8.40;99.90
5196;DHT22;2617;51.006;12.436;2024-02-21T09:42:38;8.40;99.90
5196;DHT22;2617;51.006;12.436;2024-02-21T09:47:44;8.40;99.90
5196;DHT22;2617;51.006;12.436;2024-02-21T09:52:50;8.50;99.90
5196;DHT22;2617;51.006;12.436;2024-02-21T09:57:52;8.50;99.90
5196;DHT22;2617;51.006;12.436;2024-02-21T10:02:54;8.50;99.90
5196;DHT22;2617;51.006;12.436;2024-02-21T10:07:57;8.60;99.90
5196;DHT22;2617;51.006;12.436;2024-02-21T10:13:01;8.70;99.90
5196;DHT22;2617;51.006;12.436;2024-02-21T10:18:04;8.60;99.90
5196;DHT22;2617;51.006;12.436;2024-02-21T10:23:06;8.70;99.90
5196;DHT22;2617;51.006;12.436;2024-02-21T10:28:13;8.80;99.90
5196;DHT22;2617;51.006;12.436;2024-02-21T10:33:15;8.90;99.90
5196;DHT22;2617;51.006;12.436;2024-02-21T10:38:18;8.90;99.90
5196;DHT22;2617;51.006;12.436;2024-02-21T10:43:20;9.00;99.90
5196;DHT22;2617;51.006;12.436;2024-02-21T10:48:24;9.10;99.90
5196;DHT22;2617;51.006;12.436;2024-02-21T10:58:41;9.50;99.90
5196;DHT22;2617;51.006;12.436;2024-02-21T11:03:45;9.40;99.90
5196;DHT22;2617;51.006;12.436;2024-02-21T11:08:47;9.60;99.90
5196;DHT22;2617;51.006;12.436;2024-02-21T11:13:50;9.70;99.90
5196;DHT22;2617;51.006;12.436;2024-02-21T11:18:52;9.70;99.90
5196;DHT22;2617;51.006;12.436;2024-02-21T11:23:55;9.90;99.90
5196;DHT22;2617;51.006;12.436;2024-02-21T11:29:00;10.20;99.90
5196;DHT22;2617;51.006;12.436;2024-02-21T11:34:04;10.50;99.90
5196;DHT22;2617;51.006;12.436;2024-02-21T11:39:07;10.80;99.90
5196;DHT22;2617;51.006;12.436;2024-02-21T11:44:09;11.20;99.90
5196;DHT22;2617;51.006;12.436;2024-02-21T11:49:12;11.40;99.90
5196;DHT22;2617;51.006;12.436;2024-02-21T11:54:14;11.50;99.90
5196;DHT22;2617;51.006;12.436;2024-02-21T11:59:17;11.70;99.90
5196;DHT22;2617;51.006;12.436;2024-02-21T12:04:20;11.90;99.90
5196;DHT22;2617;51.006;12.436;2024-02-21T12:09:23;12.00;99.90
5196;DHT22;2617;51.006;12.436;2024-02-21T12:14:25;12.40;99.90
5196;DHT22;2617;51.006;12.436;2024-02-21T12:19:30;12.20;99.90
5196;DHT22;2617;51.006;12.436;2024-02-21T12:24:32;12.20;99.90
5196;DHT22;2617;51.006;12.436;2024-02-21T12:29:34;12.00;99.90
5196;DHT22;2617;51.006;12.436;2024-02-21T12:34:37;12.10;99.90
5196;DHT22;2617;51.006;12.436;2024-02-21T12:39:39;12.10;99.90
5196;DHT22;2617;51.006;12.436;2024-02-21T12:44:42;12.10;99.90
5196;DHT22;2617;51.006;12.436;2024-02-21T12:49:44;12.10;99.90
5196;DHT22;2617;51.006;12.436;2024-02-21T12:54:47;12.20;99.90
5196;DHT22;2617;51.006;12.436;2024-02-21T12:59:50;12.40;98.80
5196;DHT22;2617;51.006;12.436;2024-02-21T13:04:53;12.40;98.70
5196;DHT22;2617;51.006;12.436;2024-02-21T13:09:55;12.40;98.10
5196;DHT22;2617;51.006;12.436;2024-02-21T13:14:58;12.40;98.20
5196;DHT22;2617;51.006;12.436;2024-02-21T13:20:00;12.50;98.50
5196;DHT22;2617;51.006;12.436;2024-02-21T13:25:03;12.40;98.40
5196;DHT22;2617;51.006;12.436;2024-02-21T13:30:07;12.60;98.00
5196;DHT22;2617;51.006;12.436;2024-02-21T13:35:10;12.60;98.00
5196;DHT22;2617;51.006;12.436;2024-02-21T13:45:29;12.60;95.80
5196;DHT22;2617;51.006;12.436;2024-02-21T13:50:32;12.60;95.80
5196;DHT22;2617;51.006;12.436;2024-02-21T13:55:35;12.60;95.50
5196;DHT22;2617;51.006;12.436;2024-02-21T14:00:37;12.50;94.60
5196;DHT22;2617;51.006;12.436;2024-02-21T14:05:39;12.40;94.90
5196;DHT22;2617;51.006;12.436;2024-02-21T14:10:42;12.40;95.20
5196;DHT22;2617;51.006;12.436;2024-02-21T14:15:45;12.40;95.50
5196;DHT22;2617;51.006;12.436;2024-02-21T14:20:48;12.40;95.40
5196;DHT22;2617;51.006;12.436;2024-02-21T14:25:50;12.30;95.40
5196;DHT22;2617;51.006;12.436;2024-02-21T14:30:53;12.20;95.40
5196;DHT22;2617;51.006;12.436;2024-02-21T14:35:56;11.80;95.80
5196;DHT22;2617;51.006;12.436;2024-02-21T14:40:58;11.80;95.80
5196;DHT22;2617;51.006;12.436;2024-02-21T14:46:01;11.70;96.30
5196;DHT22;2617;51.006;12.436;2024-02-21T14:51:04;11.60;97.00
5196;DHT22;2617;51.006;12.436;2024-02-21T14:56:12;11.50;96.50
5196;DHT22;2617;51.006;12.436;2024-02-21T15:01:24;11.40;97.00
5196;DHT22;2617;51.006;12.436;2024-02-21T15:06:27;11.30;96.40
5196;DHT22;2617;51.006;12.436;2024-02-21T15:11:29;11.20;96.90
5196;DHT22;2617;51.006;12.436;2024-02-21T15:16:32;11.00;96.80
5196;DHT22;2617;51.006;12.436;2024-02-21T15:21:35;10.90;97.40
5196;DHT22;2617;51.006;12.436;2024-02-21T15:26:38;10.80;97.80
5196;DHT22;2617;51.006;12.436;2024-02-21T15:31:41;10.50;98.70
5196;DHT22;2617;51.006;12.436;2024-02-21T15:36:43;10.50;98.50
5196;DHT22;2617;51.006;12.436;2024-02-21T15:41:49;10.40;98.60
5196;DHT22;2617;51.006;12.436;2024-02-21T15:46:51;10.30;99.10
5196;DHT22;2617;51.006;12.436;2024-02-21T15:51:54;10.20;99.00
5196;DHT22;2617;51.006;12.436;2024-02-21T15:56:56;10.10;99.50
5196;DHT22;2617;51.006;12.436;2024-02-21T16:01:59;10.00;99.90
5196;DHT22;2617;51.006;12.436;2024-02-21T16:07:03;9.70;99.90
5196;DHT22;2617;51.006;12.436;2024-02-21T16:12:07;9.60;99.90
5196;DHT22;2617;51.006;12.436;2024-02-21T16:17:09;9.60;99.90
5196;DHT22;2617;51.006;12.436;2024-02-21T16:22:12;9.50;99.90
5196;DHT22;2617;51.006;12.436;2024-02-21T16:27:14;9.40;99.90
5196;DHT22;2617;51.006;12.436;2024-02-21T16:32:17;9.10;99.90
5196;DHT22;2617;51.006;12.436;2024-02-21T16:37:20;9.10;99.90
5196;DHT22;2617;51.006;12.436;2024-02-21T16:42:22;9.00;99.90
5196;DHT22;2617;51.006;12.436;2024-02-21T16:47:30;9.00;99.90
5196;DHT22;2617;51.006;12.436;2024-02-21T16:52:33;8.80;99.90
5196;DHT22;2617;51.006;12.436;2024-02-21T16:57:37;8.70;99.90
5196;DHT22;2617;51.006;12.436;2024-02-21T17:02:40;8.60;99.90
5196;DHT22;2617;51.006;12.436;2024-02-21T17:07:42;8.50;99.90
5196;DHT22;2617;51.006;12.436;2024-02-21T17:12:45;8.50;99.90
5196;DHT22;2617;51.006;12.436;2024-02-21T17:17:48;8.50;99.90
5196;DHT22;2617;51.006;12.436;2024-02-21T17:22:50;8.40;99.90
5196;DHT22;2617;51.006;12.436;2024-02-21T17:27:52;8.30;99.90
5196;DHT22;2617;51.006;12.436;2024-02-21T17:32:55;8.20;99.90
5196;DHT22;2617;51.006;12.436;2024-02-21T17:37:58;8.20;99.90
5196;DHT22;2617;51.006;12.436;2024-02-21T17:43:00;8.10;99.90
5196;DHT22;2617;51.006;12.436;2024-02-21T17:48:04;8.20;99.90
5196;DHT22;2617;51.006;12.436;2024-02-21T17:53:08;8.20;99.90
5196;DHT22;2617;51.006;12.436;2024-02-21T17:58:10;8.20;99.90
5196;DHT22;2617;51.006;12.436;2024-02-21T18:03:13;8.30;99.90
5196;DHT22;2617;51.006;12.436;2024-02-21T18:08:17;8.30;99.90
5196;DHT22;2617;51.006;12.436;2024-02-21T18:13:21;8.60;99.90
5196;DHT22;2617;51.006;12.436;2024-02-21T18:18:23;8.50;99.90
5196;DHT22;2617;51.006;12.436;2024-02-21T18:23:25;8.70;99.90
5196;DHT22;2617;51.006;12.436;2024-02-21T18:28:29;8.70;99.90
5196;DHT22;2617;51.006;12.436;2024-02-21T18:33:32;8.70;99.90
5196;DHT22;2617;51.006;12.436;2024-02-21T18:38:34;8.80;99.90
5196;DHT22;2617;51.006;12.436;2024-02-21T18:43:37;8.80;99.90
5196;DHT22;2617;51.006;12.436;2024-02-21T18:48:40;8.80;99.90
5196;DHT22;2617;51.006;12.436;2024-02-21T18:53:43;8.80;99.90
5196;DHT22;2617;51.006;12.436;2024-02-21T18:58:47;8.80;99.90
5196;DHT22;2617;51.006;12.436;2024-02-21T19:03:50;8.80;99.90
5196;DHT22;2617;51.006;12.436;2024-02-21T19:08:52;8.80;99.90
5196;DHT22;2617;51.006;12.436;2024-02-21T19:13:54;8.80;99.90
5196;DHT22;2617;51.006;12.436;2024-02-21T19:18:57;8.90;99.90
5196;DHT22;2617;51.006;12.436;2024-02-21T19:23:59;8.90;99.90
5196;DHT22;2617;51.006;12.436;2024-02-21T19:29:02;9.00;99.90
5196;DHT22;2617;51.006;12.436;2024-02-21T19:34:04;9.00;99.90
5196;DHT22;2617;51.006;12.436;2024-02-21T19:39:07;9.00;99.90
5196;DHT22;2617;51.006;12.436;2024-02-21T19:44:09;8.90;99.90
5196;DHT22;2617;51.006;12.436;2024-02-21T19:49:11;8.90;99.90
5196;DHT22;2617;51.006;12.436;2024-02-21T19:54:16;8.90;99.90
5196;DHT22;2617;51.006;12.436;2024-02-21T19:59:18;9.00;99.90
5196;DHT22;2617;51.006;12.436;2024-02-21T20:04:21;8.90;99.90
5196;DHT22;2617;51.006;12.436;2024-02-21T20:09:23;8.90;99.90
5196;DHT22;2617;51.006;12.436;2024-02-21T20:14:26;8.90;99.90
5196;DHT22;2617;51.006;12.436;2024-02-21T20:19:29;8.80;99.90
5196;DHT22;2617;51.006;12.436;2024-02-21T20:24:31;8.90;99.90
5196;DHT22;2617;51.006;12.436;2024-02-21T20:29:34;8.90;99.90
5196;DHT22;2617;51.006;12.436;2024-02-21T20:34:37;9.00;99.90
5196;DHT22;2617;51.006;12.436;2024-02-21T20:39:40;8.90;99.90
5196;DHT22;2617;51.006;12.436;2024-02-21T20:44:43;9.00;99.90
5196;DHT22;2617;51.006;12.436;2024-02-21T20:49:46;9.00;99.90
5196;DHT22;2617;51.006;12.436;2024-02-21T20:54:48;9.00;99.90
5196;DHT22;2617;51.006;12.436;2024-02-21T20:59:51;9.00;99.90
5196;DHT22;2617;51.006;12.436;2024-02-21T21:04:53;9.00;99.90
5196;DHT22;2617;51.006;12.436;2024-02-21T21:09:55;9.00;99.90
5196;DHT22;2617;51.006;12.436;2024-02-21T21:14:58;9.00;99.90
5196;DHT22;2617;51.006;12.436;2024-02-21T21:20:00;9.10;99.90
5196;DHT22;2617;51.006;12.436;2024-02-21T21:25:03;9.20;99.90
5196;DHT22;2617;51.006;12.436;2024-02-21T21:30:07;9.30;99.50
5196;DHT22;2617;51.006;12.436;2024-02-21T21:35:11;9.30;99.50
5196;DHT22;2617;51.006;12.436;2024-02-21T21:40:14;9.40;99.40
5196;DHT22;2617;51.006;12.436;2024-02-21T21:45:16;9.40;98.80
5196;DHT22;2617;51.006;12.436;2024-02-21T21:50:19;9.50;98.30
5196;DHT22;2617;51.006;12.436;2024-02-21T21:55:22;9.50;98.30
5196;DHT22;2617;51.006;12.436;2024-02-21T22:00:24;9.50;98.20
5196;DHT22;2617;51.006;12.436;2024-02-21T22:05:26;9.60;98.10
5196;DHT22;2617;51.006;12.436;2024-02-21T22:10:29;9.50;97.80
5196;DHT22;2617;51.006;12.436;2024-02-21T22:15:31;9.60;97.20
5196;DHT22;2617;51.006;12.436;2024-02-21T22:20:34;9.60;97.40
5196;DHT22;2617;51.006;12.436;2024-02-21T22:25:36;9.60;97.40
5196;DHT22;2617;51.006;12.436;2024-02-21T22:30:39;9.50;97.50
5196;DHT22;2617;51.006;12.436;2024-02-21T22:35:42;9.60;97.40
5196;DHT22;2617;51.006;12.436;2024-02-21T22:40:45;9.60;97.40
5196;DHT22;2617;51.006;12.436;2024-02-21T22:45:47;9.60;97.40
5196;DHT22;2617;51.006;12.436;2024-02-21T22:50:49;9.60;97.40
5196;DHT22;2617;51.006;12.436;2024-02-21T22:55:52;9.60;97.60
5196;DHT22;2617;51.006;12.436;2024-02-21T23:00:54;9.60;97.70
5196;DHT22;2617;51.006;12.436;2024-02-21T23:05:57;9.60;97.50
5196;DHT22;2617;51.006;12.436;2024-02-21T23:11:00;9.60;97.40
5196;DHT22;2617;51.006;12.436;2024-02-21T23:16:02;9.60;97.30
5196;DHT22;2617;51.006;12.436;2024-02-21T23:21:09;9.70;96.90
5196;DHT22;2617;51.006;12.436;2024-02-21T23:26:08;9.90;96.60
5196;DHT22;2617;51.006;12.436;2024-02-21T23:31:12;10.00;95.70
5196;DHT22;2617;51.006;12.436;2024-02-21T23:36:15;10.00;95.60
5196;DHT22;2617;51.006;12.436;2024-02-21T23:41:18;10.00;95.60
5196;DHT22;2617;51.006;12.436;2024-02-21T23:46:21;10.10;95.80
5196;DHT22;2617;51.006;12.436;2024-02-21T23:51:23;10.10;95.80
5196;DHT22;2617;51.006;12.436;2024-02-21T23:56:27;10.20;95.60
